sensor_id;sensor_type;location;lat;lon;timestamp;P1;durP1;ratioP1;P2;durP2;ratioP2
7903;SDS011;3997;48.416;8.512;2022-12-29T00:00:11;1.50;;;0.77;;
7903;SDS011;3997;48.416;8.512;2022-12-29T00:02:37;1.73;;;0.80;;
7903;SDS011;3997;48.416;8.512;2022-12-29T00:05:04;1.65;;;1.00;;
7903;SDS011;3997;48.416;8.512;2022-12-29T00:07:32;2.28;;;0.68;;
7903;SDS011;3997;48.416;8.512;2022-12-29T00:09:58;3.72;;;1.00;;
7903;SDS011;3997;48.416;8.512;2022-12-29T00:12:26;0.98;;;0.80;;
7903;SDS011;3997;48.416;8.512;2022-12-29T00:15:12;1.17;;;0.70;;
7903;SDS011;3997;48.416;8.512;2022-12-29T00:17:55;1.85;;;0.80;;
7903;SDS011;3997;48.416;8.512;2022-12-29T00:20:22;1.90;;;0.68;;
7903;SDS011;3997;48.416;8.512;2022-12-29T00:23:07;4.80;;;0.60;;
7903;SDS011;3997;48.416;8.512;2022-12-29T00:25:51;3.58;;;0.82;;
7903;SDS011;3997;48.416;8.512;2022-12-29T00:28:37;0.95;;;0.95;;
7903;SDS011;3997;48.416;8.512;2022-12-29T00:31:21;1.60;;;0.80;;
7903;SDS011;3997;48.416;8.512;2022-12-29T00:34:07;0.43;;;0.43;;
7903;SDS011;3997;48.416;8.512;2022-12-29T00:36:51;1.45;;;0.70;;
7903;SDS011;3997;48.416;8.512;2022-12-29T00:39:17;2.08;;;0.77;;
7903;SDS011;3997;48.416;8.512;2022-12-29T00:42:05;4.50;;;0.95;;
7903;SDS011;3997;48.416;8.512;2022-12-29T00:44:59;4.53;;;0.65;;
7903;SDS011;3997;48.416;8.512;2022-12-29T00:47:25;1.65;;;0.70;;
7903;SDS011;3997;48.416;8.512;2022-12-29T00:49:52;1.40;;;0.70;;
7903;SDS011;3997;48.416;8.512;2022-12-29T00:52:17;0.60;;;0.57;;
7903;SDS011;3997;48.416;8.512;2022-12-29T00:54:44;1.08;;;0.70;;
7903;SDS011;3997;48.416;8.512;2022-12-29T00:57:10;1.92;;;0.90;;
7903;SDS011;3997;48.416;8.512;2022-12-29T00:59:37;1.42;;;0.95;;
7903;SDS011;3997;48.416;8.512;2022-12-29T01:02:05;1.17;;;0.65;;
7903;SDS011;3997;48.416;8.512;2022-12-29T01:04:32;0.68;;;0.60;;
7903;SDS011;3997;48.416;8.512;2022-12-29T01:06:59;0.80;;;0.80;;
7903;SDS011;3997;48.416;8.512;2022-12-29T01:09:25;0.90;;;0.75;;
7903;SDS011;3997;48.416;8.512;2022-12-29T01:12:09;2.63;;;0.75;;
7903;SDS011;3997;48.416;8.512;2022-12-29T01:14:36;1.98;;;1.02;;
7903;SDS011;3997;48.416;8.512;2022-12-29T01:17:03;1.67;;;0.95;;
7903;SDS011;3997;48.416;8.512;2022-12-29T01:19:31;0.43;;;0.40;;
7903;SDS011;3997;48.416;8.512;2022-12-29T01:21:57;1.58;;;0.75;;
7903;SDS011;3997;48.416;8.512;2022-12-29T01:24:24;0.68;;;0.68;;
7903;SDS011;3997;48.416;8.512;2022-12-29T01:26:51;1.92;;;0.47;;
7903;SDS011;3997;48.416;8.512;2022-12-29T01:29:19;3.45;;;0.57;;
7903;SDS011;3997;48.416;8.512;2022-12-29T01:31:45;0.68;;;0.60;;
7903;SDS011;3997;48.416;8.512;2022-12-29T01:34:12;1.05;;;0.70;;
7903;SDS011;3997;48.416;8.512;2022-12-29T01:36:40;3.58;;;0.70;;
7903;SDS011;3997;48.416;8.512;2022-12-29T01:39:07;1.80;;;0.70;;
7903;SDS011;3997;48.416;8.512;2022-12-29T01:41:33;2.28;;;0.75;;
7903;SDS011;3997;48.416;8.512;2022-12-29T01:43:59;1.67;;;0.88;;
7903;SDS011;3997;48.416;8.512;2022-12-29T01:46:28;0.75;;;0.75;;
7903;SDS011;3997;48.416;8.512;2022-12-29T01:48:57;0.82;;;0.70;;
7903;SDS011;3997;48.416;8.512;2022-12-29T01:51:25;0.85;;;0.85;;
7903;SDS011;3997;48.416;8.512;2022-12-29T01:53:55;0.60;;;0.60;;
7903;SDS011;3997;48.416;8.512;2022-12-29T01:56:24;1.67;;;1.05;;
7903;SDS011;3997;48.416;8.512;2022-12-29T01:58:52;2.20;;;0.85;;
7903;SDS011;3997;48.416;8.512;2022-12-29T02:01:20;0.68;;;0.60;;
7903;SDS011;3997;48.416;8.512;2022-12-29T02:03:47;1.85;;;1.00;;
7903;SDS011;3997;48.416;8.512;2022-12-29T02:06:16;1.58;;;0.77;;
7903;SDS011;3997;48.416;8.512;2022-12-29T02:08:43;1.90;;;0.88;;
7903;SDS011;3997;48.416;8.512;2022-12-29T02:11:13;0.65;;;0.65;;
7903;SDS011;3997;48.416;8.512;2022-12-29T02:13:40;0.88;;;0.60;;
7903;SDS011;3997;48.416;8.512;2022-12-29T02:16:09;1.25;;;0.88;;
7903;SDS011;3997;48.416;8.512;2022-12-29T02:18:40;2.92;;;0.65;;
7903;SDS011;3997;48.416;8.512;2022-12-29T02:21:22;0.88;;;0.80;;
7903;SDS011;3997;48.416;8.512;2022-12-29T02:23:59;1.83;;;1.00;;
7903;SDS011;3997;48.416;8.512;2022-12-29T02:29:34;1.38;;;0.80;;
7903;SDS011;3997;48.416;8.512;2022-12-29T02:32:08;1.20;;;1.10;;
7903;SDS011;3997;48.416;8.512;2022-12-29T02:34:38;0.80;;;0.80;;
7903;SDS011;3997;48.416;8.512;2022-12-29T02:37:07;2.95;;;1.00;;
7903;SDS011;3997;48.416;8.512;2022-12-29T02:39:38;1.00;;;1.00;;
7903;SDS011;3997;48.416;8.512;2022-12-29T02:42:08;3.78;;;0.80;;
7903;SDS011;3997;48.416;8.512;2022-12-29T02:44:39;2.80;;;1.05;;
7903;SDS011;3997;48.416;8.512;2022-12-29T02:47:09;1.42;;;1.00;;
7903;SDS011;3997;48.416;8.512;2022-12-29T02:49:38;1.00;;;0.82;;
7903;SDS011;3997;48.416;8.512;2022-12-29T02:52:06;0.80;;;0.80;;
7903;SDS011;3997;48.416;8.512;2022-12-29T02:54:33;1.45;;;1.10;;
7903;SDS011;3997;48.416;8.512;2022-12-29T02:57:11;0.80;;;0.80;;
7903;SDS011;3997;48.416;8.512;2022-12-29T02:59:37;1.17;;;1.08;;
7903;SDS011;3997;48.416;8.512;2022-12-29T03:05:17;1.85;;;1.20;;
7903;SDS011;3997;48.416;8.512;2022-12-29T03:07:49;3.90;;;1.08;;
7903;SDS011;3997;48.416;8.512;2022-12-29T03:10:21;1.02;;;0.90;;
7903;SDS011;3997;48.416;8.512;2022-12-29T03:12:53;1.75;;;0.90;;
7903;SDS011;3997;48.416;8.512;2022-12-29T03:15:39;1.15;;;0.90;;
7903;SDS011;3997;48.416;8.512;2022-12-29T03:18:25;1.40;;;0.88;;
7903;SDS011;3997;48.416;8.512;2022-12-29T03:20:55;2.58;;;0.90;;
7903;SDS011;3997;48.416;8.512;2022-12-29T03:23:24;1.77;;;1.20;;
7903;SDS011;3997;48.416;8.512;2022-12-29T03:25:52;1.00;;;0.90;;
7903;SDS011;3997;48.416;8.512;2022-12-29T03:28:21;0.70;;;0.70;;
7903;SDS011;3997;48.416;8.512;2022-12-29T03:30:48;2.70;;;1.20;;
7903;SDS011;3997;48.416;8.512;2022-12-29T03:33:15;2.63;;;1.35;;
7903;SDS011;3997;48.416;8.512;2022-12-29T03:35:43;1.10;;;1.00;;
7903;SDS011;3997;48.416;8.512;2022-12-29T03:38:12;2.55;;;1.27;;
7903;SDS011;3997;48.416;8.512;2022-12-29T03:40:41;0.90;;;0.70;;
7903;SDS011;3997;48.416;8.512;2022-12-29T03:43:08;2.45;;;1.05;;
7903;SDS011;3997;48.416;8.512;2022-12-29T03:45:35;4.40;;;1.20;;
7903;SDS011;3997;48.416;8.512;2022-12-29T03:48:01;1.48;;;1.23;;
7903;SDS011;3997;48.416;8.512;2022-12-29T03:50:28;2.10;;;1.23;;
7903;SDS011;3997;48.416;8.512;2022-12-29T03:52:54;1.00;;;1.00;;
7903;SDS011;3997;48.416;8.512;2022-12-29T03:55:22;0.95;;;0.93;;
7903;SDS011;3997;48.416;8.512;2022-12-29T03:57:48;1.75;;;1.05;;
7903;SDS011;3997;48.416;8.512;2022-12-29T04:00:15;0.90;;;0.73;;
7903;SDS011;3997;48.416;8.512;2022-12-29T04:02:41;3.80;;;1.20;;
7903;SDS011;3997;48.416;8.512;2022-12-29T04:05:08;1.63;;;1.08;;
7903;SDS011;3997;48.416;8.512;2022-12-29T04:07:34;2.53;;;1.10;;
7903;SDS011;3997;48.416;8.512;2022-12-29T04:10:01;1.52;;;1.42;;
7903;SDS011;3997;48.416;8.512;2022-12-29T04:12:28;1.38;;;1.20;;
7903;SDS011;3997;48.416;8.512;2022-12-29T04:14:55;1.60;;;1.10;;
7903;SDS011;3997;48.416;8.512;2022-12-29T04:17:21;1.13;;;1.05;;
7903;SDS011;3997;48.416;8.512;2022-12-29T04:19:48;1.38;;;1.27;;
7903;SDS011;3997;48.416;8.512;2022-12-29T04:22:14;2.05;;;1.23;;
7903;SDS011;3997;48.416;8.512;2022-12-29T04:24:40;3.80;;;1.60;;
7903;SDS011;3997;48.416;8.512;2022-12-29T04:27:07;2.20;;;0.93;;
7903;SDS011;3997;48.416;8.512;2022-12-29T04:29:35;1.00;;;1.00;;
7903;SDS011;3997;48.416;8.512;2022-12-29T04:32:01;3.10;;;1.40;;
7903;SDS011;3997;48.416;8.512;2022-12-29T04:34:28;3.20;;;1.00;;
7903;SDS011;3997;48.416;8.512;2022-12-29T04:36:54;1.30;;;1.00;;
7903;SDS011;3997;48.416;8.512;2022-12-29T04:39:21;2.25;;;1.70;;
7903;SDS011;3997;48.416;8.512;2022-12-29T04:41:47;1.08;;;1.02;;
7903;SDS011;3997;48.416;8.512;2022-12-29T04:44:14;1.85;;;1.40;;
7903;SDS011;3997;48.416;8.512;2022-12-29T04:46:41;2.30;;;1.10;;
7903;SDS011;3997;48.416;8.512;2022-12-29T04:49:08;1.48;;;1.10;;
7903;SDS011;3997;48.416;8.512;2022-12-29T04:51:34;2.17;;;1.50;;
7903;SDS011;3997;48.416;8.512;2022-12-29T04:54:01;2.45;;;0.95;;
7903;SDS011;3997;48.416;8.512;2022-12-29T04:56:28;0.98;;;0.88;;
7903;SDS011;3997;48.416;8.512;2022-12-29T04:58:54;2.72;;;1.13;;
7903;SDS011;3997;48.416;8.512;2022-12-29T05:01:20;0.73;;;0.73;;
7903;SDS011;3997;48.416;8.512;2022-12-29T05:03:48;3.63;;;1.50;;
7903;SDS011;3997;48.416;8.512;2022-12-29T05:06:15;1.60;;;1.20;;
7903;SDS011;3997;48.416;8.512;2022-12-29T05:08:41;3.63;;;1.00;;
7903;SDS011;3997;48.416;8.512;2022-12-29T05:11:08;1.88;;;1.20;;
7903;SDS011;3997;48.416;8.512;2022-12-29T05:13:34;2.88;;;1.23;;
7903;SDS011;3997;48.416;8.512;2022-12-29T05:16:01;1.88;;;1.23;;
7903;SDS011;3997;48.416;8.512;2022-12-29T05:18:27;1.63;;;1.45;;
7903;SDS011;3997;48.416;8.512;2022-12-29T05:20:55;1.08;;;1.02;;
7903;SDS011;3997;48.416;8.512;2022-12-29T05:23:21;1.58;;;1.15;;
7903;SDS011;3997;48.416;8.512;2022-12-29T05:25:48;2.00;;;1.27;;
7903;SDS011;3997;48.416;8.512;2022-12-29T05:28:14;1.17;;;1.05;;
7903;SDS011;3997;48.416;8.512;2022-12-29T05:30:40;1.50;;;1.38;;
7903;SDS011;3997;48.416;8.512;2022-12-29T05:33:07;3.05;;;1.33;;
7903;SDS011;3997;48.416;8.512;2022-12-29T05:35:36;1.95;;;1.23;;
7903;SDS011;3997;48.416;8.512;2022-12-29T05:38:04;1.70;;;1.00;;
7903;SDS011;3997;48.416;8.512;2022-12-29T05:40:30;1.92;;;1.30;;
7903;SDS011;3997;48.416;8.512;2022-12-29T05:42:57;2.00;;;1.10;;
7903;SDS011;3997;48.416;8.512;2022-12-29T05:45:23;1.40;;;1.30;;
7903;SDS011;3997;48.416;8.512;2022-12-29T05:47:49;1.48;;;0.98;;
7903;SDS011;3997;48.416;8.512;2022-12-29T05:50:16;2.13;;;1.05;;
7903;SDS011;3997;48.416;8.512;2022-12-29T05:52:42;1.00;;;0.85;;
7903;SDS011;3997;48.416;8.512;2022-12-29T05:55:11;1.65;;;1.38;;
7903;SDS011;3997;48.416;8.512;2022-12-29T05:57:37;2.47;;;1.35;;
7903;SDS011;3997;48.416;8.512;2022-12-29T06:00:04;2.97;;;1.60;;
7903;SDS011;3997;48.416;8.512;2022-12-29T06:02:31;2.50;;;1.20;;
7903;SDS011;3997;48.416;8.512;2022-12-29T06:04:57;1.00;;;1.00;;
7903;SDS011;3997;48.416;8.512;2022-12-29T06:07:24;1.63;;;1.20;;
7903;SDS011;3997;48.416;8.512;2022-12-29T06:09:50;2.85;;;1.33;;
7903;SDS011;3997;48.416;8.512;2022-12-29T06:12:18;1.45;;;0.85;;
7903;SDS011;3997;48.416;8.512;2022-12-29T06:14:44;1.95;;;1.40;;
7903;SDS011;3997;48.416;8.512;2022-12-29T06:17:11;0.90;;;0.90;;
7903;SDS011;3997;48.416;8.512;2022-12-29T06:19:37;3.25;;;1.30;;
7903;SDS011;3997;48.416;8.512;2022-12-29T06:22:03;1.27;;;1.17;;
7903;SDS011;3997;48.416;8.512;2022-12-29T06:24:32;2.17;;;1.15;;
7903;SDS011;3997;48.416;8.512;2022-12-29T06:26:58;1.13;;;0.95;;
7903;SDS011;3997;48.416;8.512;2022-12-29T06:29:26;1.73;;;1.10;;
7903;SDS011;3997;48.416;8.512;2022-12-29T06:31:53;1.98;;;1.27;;
7903;SDS011;3997;48.416;8.512;2022-12-29T06:34:22;1.88;;;1.33;;
7903;SDS011;3997;48.416;8.512;2022-12-29T06:36:49;1.38;;;1.27;;
7903;SDS011;3997;48.416;8.512;2022-12-29T06:39:15;1.65;;;1.13;;
7903;SDS011;3997;48.416;8.512;2022-12-29T06:41:42;1.13;;;1.05;;
7903;SDS011;3997;48.416;8.512;2022-12-29T06:44:08;0.55;;;0.55;;
7903;SDS011;3997;48.416;8.512;2022-12-29T06:46:36;1.95;;;1.42;;
7903;SDS011;3997;48.416;8.512;2022-12-29T06:49:02;1.40;;;1.02;;
7903;SDS011;3997;48.416;8.512;2022-12-29T06:51:29;3.38;;;0.93;;
7903;SDS011;3997;48.416;8.512;2022-12-29T06:53:55;1.00;;;0.80;;
7903;SDS011;3997;48.416;8.512;2022-12-29T06:56:22;1.55;;;1.05;;
7903;SDS011;3997;48.416;8.512;2022-12-29T06:58:48;4.80;;;0.85;;
7903;SDS011;3997;48.416;8.512;2022-12-29T07:01:15;1.45;;;0.82;;
7903;SDS011;3997;48.416;8.512;2022-12-29T07:03:42;2.47;;;1.13;;
7903;SDS011;3997;48.416;8.512;2022-12-29T07:06:09;1.15;;;1.02;;
7903;SDS011;3997;48.416;8.512;2022-12-29T07:08:35;1.48;;;1.10;;
7903;SDS011;3997;48.416;8.512;2022-12-29T07:11:02;3.53;;;1.17;;
7903;SDS011;3997;48.416;8.512;2022-12-29T07:13:28;2.85;;;1.30;;
7903;SDS011;3997;48.416;8.512;2022-12-29T07:15:55;2.58;;;1.27;;
7903;SDS011;3997;48.416;8.512;2022-12-29T07:18:21;1.58;;;1.10;;
7903;SDS011;3997;48.416;8.512;2022-12-29T07:20:49;2.60;;;0.90;;
7903;SDS011;3997;48.416;8.512;2022-12-29T07:23:15;1.35;;;1.25;;
7903;SDS011;3997;48.416;8.512;2022-12-29T07:25:42;1.55;;;1.10;;
7903;SDS011;3997;48.416;8.512;2022-12-29T07:28:08;1.92;;;1.00;;
7903;SDS011;3997;48.416;8.512;2022-12-29T07:30:36;1.67;;;1.08;;
7903;SDS011;3997;48.416;8.512;2022-12-29T07:33:02;1.02;;;0.82;;
7903;SDS011;3997;48.416;8.512;2022-12-29T07:35:29;1.27;;;0.98;;
7903;SDS011;3997;48.416;8.512;2022-12-29T07:37:57;1.35;;;1.02;;
7903;SDS011;3997;48.416;8.512;2022-12-29T07:40:23;1.40;;;1.30;;
7903;SDS011;3997;48.416;8.512;2022-12-29T07:42:50;1.35;;;1.00;;
7903;SDS011;3997;48.416;8.512;2022-12-29T07:45:16;1.15;;;1.02;;
7903;SDS011;3997;48.416;8.512;2022-12-29T07:47:42;3.10;;;1.23;;
7903;SDS011;3997;48.416;8.512;2022-12-29T07:50:09;1.88;;;1.10;;
7903;SDS011;3997;48.416;8.512;2022-12-29T07:52:35;2.90;;;1.45;;
7903;SDS011;3997;48.416;8.512;2022-12-29T07:55:03;1.40;;;1.10;;
7903;SDS011;3997;48.416;8.512;2022-12-29T07:57:30;2.67;;;1.00;;
7903;SDS011;3997;48.416;8.512;2022-12-29T07:59:56;0.90;;;0.90;;
7903;SDS011;3997;48.416;8.512;2022-12-29T08:02:23;2.22;;;1.00;;
7903;SDS011;3997;48.416;8.512;2022-12-29T08:04:51;0.82;;;0.82;;
7903;SDS011;3997;48.416;8.512;2022-12-29T08:07:17;1.30;;;1.20;;
7903;SDS011;3997;48.416;8.512;2022-12-29T08:09:43;1.85;;;1.10;;
7903;SDS011;3997;48.416;8.512;2022-12-29T08:12:11;1.05;;;1.00;;
7903;SDS011;3997;48.416;8.512;2022-12-29T08:14:38;1.02;;;1.00;;
7903;SDS011;3997;48.416;8.512;2022-12-29T08:17:04;1.63;;;1.10;;
7903;SDS011;3997;48.416;8.512;2022-12-29T08:19:31;0.95;;;0.88;;
7903;SDS011;3997;48.416;8.512;2022-12-29T08:21:57;1.23;;;1.00;;
7903;SDS011;3997;48.416;8.512;2022-12-29T08:24:23;1.17;;;1.10;;
7903;SDS011;3997;48.416;8.512;2022-12-29T08:26:50;1.52;;;1.20;;
7903;SDS011;3997;48.416;8.512;2022-12-29T08:29:18;1.08;;;0.98;;
7903;SDS011;3997;48.416;8.512;2022-12-29T08:31:44;0.85;;;0.85;;
7903;SDS011;3997;48.416;8.512;2022-12-29T08:34:11;2.13;;;1.00;;
7903;SDS011;3997;48.416;8.512;2022-12-29T08:36:37;1.48;;;0.85;;
7903;SDS011;3997;48.416;8.512;2022-12-29T08:39:03;1.70;;;1.15;;
7903;SDS011;3997;48.416;8.512;2022-12-29T08:41:30;2.92;;;1.15;;
7903;SDS011;3997;48.416;8.512;2022-12-29T08:43:56;1.33;;;1.08;;
7903;SDS011;3997;48.416;8.512;2022-12-29T08:46:24;2.40;;;1.25;;
7903;SDS011;3997;48.416;8.512;2022-12-29T08:48:50;1.60;;;1.33;;
7903;SDS011;3997;48.416;8.512;2022-12-29T08:51:17;1.10;;;1.00;;
7903;SDS011;3997;48.416;8.512;2022-12-29T08:53:43;1.33;;;1.10;;
7903;SDS011;3997;48.416;8.512;2022-12-29T08:56:10;0.90;;;0.90;;
7903;SDS011;3997;48.416;8.512;2022-12-29T08:58:36;1.90;;;1.30;;
7903;SDS011;3997;48.416;8.512;2022-12-29T09:01:03;2.92;;;1.20;;
7903;SDS011;3997;48.416;8.512;2022-12-29T09:03:31;1.05;;;1.05;;
7903;SDS011;3997;48.416;8.512;2022-12-29T09:05:57;1.65;;;0.95;;
7903;SDS011;3997;48.416;8.512;2022-12-29T09:08:24;0.93;;;0.93;;
7903;SDS011;3997;48.416;8.512;2022-12-29T09:10:50;2.05;;;1.25;;
7903;SDS011;3997;48.416;8.512;2022-12-29T09:13:17;2.45;;;1.00;;
7903;SDS011;3997;48.416;8.512;2022-12-29T09:15:43;0.70;;;0.70;;
7903;SDS011;3997;48.416;8.512;2022-12-29T09:18:10;1.60;;;1.27;;
7903;SDS011;3997;48.416;8.512;2022-12-29T09:20:38;2.55;;;1.10;;
7903;SDS011;3997;48.416;8.512;2022-12-29T09:23:05;1.35;;;1.25;;
7903;SDS011;3997;48.416;8.512;2022-12-29T09:25:32;2.63;;;1.10;;
7903;SDS011;3997;48.416;8.512;2022-12-29T09:27:59;0.82;;;0.68;;
7903;SDS011;3997;48.416;8.512;2022-12-29T09:30:27;1.67;;;1.15;;
7903;SDS011;3997;48.416;8.512;2022-12-29T09:32:54;1.75;;;0.98;;
7903;SDS011;3997;48.416;8.512;2022-12-29T09:35:20;2.88;;;0.88;;
7903;SDS011;3997;48.416;8.512;2022-12-29T09:37:48;1.15;;;1.00;;
7903;SDS011;3997;48.416;8.512;2022-12-29T09:40:19;1.00;;;0.95;;
7903;SDS011;3997;48.416;8.512;2022-12-29T09:42:50;1.33;;;1.23;;
7903;SDS011;3997;48.416;8.512;2022-12-29T09:45:21;2.22;;;1.27;;
7903;SDS011;3997;48.416;8.512;2022-12-29T09:47:48;1.45;;;1.08;;
7903;SDS011;3997;48.416;8.512;2022-12-29T09:50:19;2.60;;;1.60;;
7903;SDS011;3997;48.416;8.512;2022-12-29T09:52:47;1.15;;;1.02;;
7903;SDS011;3997;48.416;8.512;2022-12-29T09:55:16;4.18;;;1.50;;
7903;SDS011;3997;48.416;8.512;2022-12-29T09:57:45;2.65;;;1.30;;
7903;SDS011;3997;48.416;8.512;2022-12-29T10:00:14;1.67;;;1.58;;
7903;SDS011;3997;48.416;8.512;2022-12-29T10:02:42;2.40;;;1.80;;
7903;SDS011;3997;48.416;8.512;2022-12-29T10:05:13;5.38;;;3.45;;
7903;SDS011;3997;48.416;8.512;2022-12-29T10:07:44;2.85;;;2.63;;
7903;SDS011;3997;48.416;8.512;2022-12-29T10:10:17;2.45;;;2.35;;
7903;SDS011;3997;48.416;8.512;2022-12-29T10:15:38;1.80;;;1.70;;
7903;SDS011;3997;48.416;8.512;2022-12-29T10:18:08;2.22;;;1.98;;
7903;SDS011;3997;48.416;8.512;2022-12-29T10:20:43;6.22;;;1.92;;
7903;SDS011;3997;48.416;8.512;2022-12-29T10:23:18;2.30;;;1.45;;
7903;SDS011;3997;48.416;8.512;2022-12-29T10:25:49;2.13;;;1.60;;
7903;SDS011;3997;48.416;8.512;2022-12-29T10:28:17;2.45;;;1.77;;
7903;SDS011;3997;48.416;8.512;2022-12-29T10:30:45;1.38;;;1.27;;
7903;SDS011;3997;48.416;8.512;2022-12-29T10:33:14;4.20;;;1.70;;
7903;SDS011;3997;48.416;8.512;2022-12-29T10:35:41;2.13;;;1.27;;
7903;SDS011;3997;48.416;8.512;2022-12-29T10:38:11;2.40;;;1.30;;
7903;SDS011;3997;48.416;8.512;2022-12-29T10:40:40;3.25;;;1.60;;
7903;SDS011;3997;48.416;8.512;2022-12-29T10:43:16;3.50;;;1.95;;
7903;SDS011;3997;48.416;8.512;2022-12-29T10:45:44;3.08;;;1.58;;
7903;SDS011;3997;48.416;8.512;2022-12-29T10:48:14;1.40;;;1.30;;
7903;SDS011;3997;48.416;8.512;2022-12-29T10:50:45;2.88;;;1.38;;
7903;SDS011;3997;48.416;8.512;2022-12-29T10:53:12;1.10;;;1.00;;
7903;SDS011;3997;48.416;8.512;2022-12-29T10:55:41;1.63;;;1.52;;
7903;SDS011;3997;48.416;8.512;2022-12-29T10:58:10;2.20;;;1.60;;
7903;SDS011;3997;48.416;8.512;2022-12-29T11:00:39;2.90;;;1.50;;
7903;SDS011;3997;48.416;8.512;2022-12-29T11:03:12;1.35;;;0.90;;
7903;SDS011;3997;48.416;8.512;2022-12-29T11:05:41;2.60;;;1.55;;
7903;SDS011;3997;48.416;8.512;2022-12-29T11:08:09;0.90;;;0.90;;
7903;SDS011;3997;48.416;8.512;2022-12-29T11:10:37;2.35;;;1.65;;
7903;SDS011;3997;48.416;8.512;2022-12-29T11:13:11;3.00;;;1.58;;
7903;SDS011;3997;48.416;8.512;2022-12-29T11:18:22;4.38;;;2.38;;
7903;SDS011;3997;48.416;8.512;2022-12-29T11:20:49;1.45;;;1.30;;
7903;SDS011;3997;48.416;8.512;2022-12-29T11:23:29;1.60;;;1.50;;
7903;SDS011;3997;48.416;8.512;2022-12-29T11:26:05;3.15;;;1.50;;
7903;SDS011;3997;48.416;8.512;2022-12-29T11:28:32;2.38;;;1.75;;
7903;SDS011;3997;48.416;8.512;2022-12-29T11:30:59;1.40;;;1.30;;
7903;SDS011;3997;48.416;8.512;2022-12-29T11:33:28;1.70;;;1.60;;
7903;SDS011;3997;48.416;8.512;2022-12-29T11:35:56;2.50;;;1.45;;
7903;SDS011;3997;48.416;8.512;2022-12-29T11:38:24;1.60;;;1.30;;
7903;SDS011;3997;48.416;8.512;2022-12-29T11:40:52;3.42;;;1.30;;
7903;SDS011;3997;48.416;8.512;2022-12-29T11:43:19;1.77;;;1.52;;
7903;SDS011;3997;48.416;8.512;2022-12-29T11:45:48;1.38;;;1.27;;
7903;SDS011;3997;48.416;8.512;2022-12-29T11:48:19;2.10;;;1.40;;
7903;SDS011;3997;48.416;8.512;2022-12-29T11:50:50;1.73;;;1.35;;
7903;SDS011;3997;48.416;8.512;2022-12-29T11:53:20;3.80;;;1.17;;
7903;SDS011;3997;48.416;8.512;2022-12-29T11:55:51;1.75;;;1.50;;
7903;SDS011;3997;48.416;8.512;2022-12-29T11:58:17;1.75;;;1.27;;
7903;SDS011;3997;48.416;8.512;2022-12-29T12:00:44;2.10;;;1.83;;
7903;SDS011;3997;48.416;8.512;2022-12-29T12:03:12;2.60;;;1.70;;
7903;SDS011;3997;48.416;8.512;2022-12-29T12:05:40;3.20;;;1.60;;
7903;SDS011;3997;48.416;8.512;2022-12-29T12:08:11;3.25;;;1.70;;
7903;SDS011;3997;48.416;8.512;2022-12-29T12:10:39;1.77;;;1.60;;
7903;SDS011;3997;48.416;8.512;2022-12-29T12:13:14;2.97;;;2.20;;
7903;SDS011;3997;48.416;8.512;2022-12-29T12:15:43;4.60;;;3.30;;
7903;SDS011;3997;48.416;8.512;2022-12-29T12:18:14;3.85;;;3.35;;
7903;SDS011;3997;48.416;8.512;2022-12-29T12:20:44;2.70;;;2.45;;
7903;SDS011;3997;48.416;8.512;2022-12-29T12:23:21;6.78;;;6.15;;
7903;SDS011;3997;48.416;8.512;2022-12-29T12:25:53;4.32;;;3.90;;
7903;SDS011;3997;48.416;8.512;2022-12-29T12:28:24;8.88;;;8.05;;
7903;SDS011;3997;48.416;8.512;2022-12-29T12:30:53;5.10;;;4.15;;
7903;SDS011;3997;48.416;8.512;2022-12-29T12:33:22;4.07;;;2.35;;
7903;SDS011;3997;48.416;8.512;2022-12-29T12:36:04;4.00;;;2.10;;
7903;SDS011;3997;48.416;8.512;2022-12-29T12:38:35;3.83;;;1.70;;
7903;SDS011;3997;48.416;8.512;2022-12-29T12:41:05;2.85;;;1.88;;
7903;SDS011;3997;48.416;8.512;2022-12-29T12:43:37;3.90;;;1.92;;
7903;SDS011;3997;48.416;8.512;2022-12-29T12:46:25;3.97;;;2.08;;
7903;SDS011;3997;48.416;8.512;2022-12-29T12:49:06;2.55;;;1.52;;
7903;SDS011;3997;48.416;8.512;2022-12-29T12:51:36;1.75;;;1.65;;
7903;SDS011;3997;48.416;8.512;2022-12-29T12:54:14;4.70;;;1.70;;
7903;SDS011;3997;48.416;8.512;2022-12-29T12:56:52;1.35;;;1.25;;
7903;SDS011;3997;48.416;8.512;2022-12-29T12:59:26;1.67;;;1.08;;
7903;SDS011;3997;48.416;8.512;2022-12-29T13:01:59;1.52;;;1.30;;
7903;SDS011;3997;48.416;8.512;2022-12-29T13:07:13;0.63;;;0.63;;
7903;SDS011;3997;48.416;8.512;2022-12-29T13:09:50;0.98;;;0.98;;
7903;SDS011;3997;48.416;8.512;2022-12-29T13:12:22;1.80;;;1.30;;
7903;SDS011;3997;48.416;8.512;2022-12-29T13:14:57;3.05;;;1.30;;
7903;SDS011;3997;48.416;8.512;2022-12-29T13:17:28;0.80;;;0.80;;
7903;SDS011;3997;48.416;8.512;2022-12-29T13:19:58;3.47;;;1.70;;
7903;SDS011;3997;48.416;8.512;2022-12-29T13:22:28;2.25;;;1.30;;
7903;SDS011;3997;48.416;8.512;2022-12-29T13:25:02;1.05;;;0.90;;
7903;SDS011;3997;48.416;8.512;2022-12-29T13:27:34;2.97;;;1.20;;
7903;SDS011;3997;48.416;8.512;2022-12-29T13:30:04;1.33;;;1.23;;
7903;SDS011;3997;48.416;8.512;2022-12-29T13:32:34;2.65;;;1.27;;
7903;SDS011;3997;48.416;8.512;2022-12-29T13:35:08;1.13;;;1.02;;
7903;SDS011;3997;48.416;8.512;2022-12-29T13:37:40;1.05;;;0.80;;
7903;SDS011;3997;48.416;8.512;2022-12-29T13:40:14;1.85;;;1.40;;
7903;SDS011;3997;48.416;8.512;2022-12-29T13:42:42;4.47;;;2.05;;
7903;SDS011;3997;48.416;8.512;2022-12-29T13:45:10;2.15;;;1.30;;
7903;SDS011;3997;48.416;8.512;2022-12-29T13:47:38;2.22;;;1.20;;
7903;SDS011;3997;48.416;8.512;2022-12-29T13:50:13;1.17;;;1.08;;
7903;SDS011;3997;48.416;8.512;2022-12-29T13:52:43;2.08;;;1.23;;
7903;SDS011;3997;48.416;8.512;2022-12-29T13:55:19;3.05;;;1.40;;
7903;SDS011;3997;48.416;8.512;2022-12-29T13:57:48;1.85;;;1.40;;
7903;SDS011;3997;48.416;8.512;2022-12-29T14:00:16;2.25;;;1.20;;
7903;SDS011;3997;48.416;8.512;2022-12-29T14:02:46;3.45;;;1.30;;
7903;SDS011;3997;48.416;8.512;2022-12-29T14:05:27;1.30;;;1.20;;
7903;SDS011;3997;48.416;8.512;2022-12-29T14:07:56;3.90;;;1.02;;
7903;SDS011;3997;48.416;8.512;2022-12-29T14:10:27;1.13;;;0.90;;
7903;SDS011;3997;48.416;8.512;2022-12-29T14:12:59;2.38;;;1.30;;
7903;SDS011;3997;48.416;8.512;2022-12-29T14:15:26;2.15;;;1.20;;
7903;SDS011;3997;48.416;8.512;2022-12-29T14:18:10;1.77;;;1.35;;
7903;SDS011;3997;48.416;8.512;2022-12-29T14:20:37;1.90;;;1.80;;
7903;SDS011;3997;48.416;8.512;2022-12-29T14:23:14;3.33;;;2.20;;
7903;SDS011;3997;48.416;8.512;2022-12-29T14:26:00;2.70;;;1.17;;
7903;SDS011;3997;48.416;8.512;2022-12-29T14:28:27;1.13;;;1.05;;
7903;SDS011;3997;48.416;8.512;2022-12-29T14:30:54;1.73;;;1.20;;
7903;SDS011;3997;48.416;8.512;2022-12-29T14:33:21;3.03;;;1.20;;
7903;SDS011;3997;48.416;8.512;2022-12-29T14:35:49;1.92;;;1.50;;
7903;SDS011;3997;48.416;8.512;2022-12-29T14:38:27;1.48;;;1.35;;
7903;SDS011;3997;48.416;8.512;2022-12-29T14:43:36;2.42;;;1.50;;
7903;SDS011;3997;48.416;8.512;2022-12-29T14:46:03;1.90;;;1.13;;
7903;SDS011;3997;48.416;8.512;2022-12-29T14:48:35;1.15;;;1.05;;
7903;SDS011;3997;48.416;8.512;2022-12-29T14:51:03;1.65;;;1.13;;
7903;SDS011;3997;48.416;8.512;2022-12-29T14:53:43;4.28;;;1.30;;
7903;SDS011;3997;48.416;8.512;2022-12-29T14:56:10;0.90;;;0.73;;
7903;SDS011;3997;48.416;8.512;2022-12-29T14:58:43;3.80;;;1.30;;
7903;SDS011;3997;48.416;8.512;2022-12-29T15:01:15;1.60;;;1.05;;
7903;SDS011;3997;48.416;8.512;2022-12-29T15:03:43;3.40;;;1.50;;
7903;SDS011;3997;48.416;8.512;2022-12-29T15:06:11;2.65;;;1.42;;
7903;SDS011;3997;48.416;8.512;2022-12-29T15:08:44;4.13;;;1.42;;
7903;SDS011;3997;48.416;8.512;2022-12-29T15:11:13;4.68;;;1.15;;
7903;SDS011;3997;48.416;8.512;2022-12-29T15:13:43;2.70;;;1.40;;
7903;SDS011;3997;48.416;8.512;2022-12-29T15:16:20;1.40;;;1.30;;
7903;SDS011;3997;48.416;8.512;2022-12-29T15:18:47;1.85;;;1.45;;
7903;SDS011;3997;48.416;8.512;2022-12-29T15:21:14;3.97;;;1.50;;
7903;SDS011;3997;48.416;8.512;2022-12-29T15:23:42;2.38;;;1.80;;
7903;SDS011;3997;48.416;8.512;2022-12-29T15:26:10;1.35;;;0.93;;
7903;SDS011;3997;48.416;8.512;2022-12-29T15:28:37;2.20;;;1.67;;
7903;SDS011;3997;48.416;8.512;2022-12-29T15:31:08;2.88;;;1.45;;
7903;SDS011;3997;48.416;8.512;2022-12-29T15:33:37;3.85;;;1.30;;
7903;SDS011;3997;48.416;8.512;2022-12-29T15:36:09;3.25;;;1.70;;
7903;SDS011;3997;48.416;8.512;2022-12-29T15:38:36;2.03;;;1.60;;
7903;SDS011;3997;48.416;8.512;2022-12-29T15:41:04;2.63;;;1.23;;
7903;SDS011;3997;48.416;8.512;2022-12-29T15:43:36;1.48;;;1.10;;